createdAt,value
2018-12-09T00:00:03.111Z,988.84
2018-12-09T00:01:03.134Z,988.77
2018-12-09T00:02:03.094Z,988.67
2018-12-09T00:03:03.073Z,988.65
2018-12-09T00:04:03.064Z,988.60
2018-12-09T00:05:03.059Z,988.60
2018-12-09T00:06:03.037Z,988.59
2018-12-09T00:07:03.061Z,988.52
2018-12-09T00:08:03.022Z,988.59
2018-12-09T00:09:03.007Z,988.49
2018-12-09T00:10:03.000Z,988.46
2018-12-09T00:11:03.003Z,988.37
2018-12-09T00:12:02.993Z,988.34
2018-12-09T00:13:02.965Z,988.38
2018-12-09T00:14:02.951Z,988.31
2018-12-09T00:15:02.950Z,988.30
2018-12-09T00:16:02.928Z,988.25
2018-12-09T00:17:02.965Z,988.23
2018-12-09T00:18:02.907Z,988.27
2018-12-09T00:19:02.900Z,988.15
2018-12-09T00:20:02.889Z,988.09
2018-12-09T00:21:02.882Z,988.15
2018-12-09T00:22:02.883Z,988.09
2018-12-09T00:23:02.857Z,988.10
2018-12-09T00:24:02.843Z,988.03
2018-12-09T00:25:02.831Z,987.99
2018-12-09T00:26:02.827Z,987.93
2018-12-09T00:27:02.837Z,987.95
2018-12-09T00:28:02.804Z,987.94
2018-12-09T00:29:02.790Z,987.89
2018-12-09T00:30:02.774Z,987.86
2018-12-09T00:31:02.765Z,987.80
2018-12-09T00:32:02.779Z,987.82
2018-12-09T00:33:02.745Z,987.84
2018-12-09T00:34:02.843Z,987.71
2018-12-09T00:35:02.727Z,987.69
2018-12-09T00:36:02.715Z,987.72
2018-12-09T00:37:02.719Z,987.69
2018-12-09T00:38:02.694Z,987.62
2018-12-09T00:39:02.684Z,987.54
2018-12-09T00:40:02.683Z,987.50
2018-12-09T00:41:02.663Z,987.49
2018-12-09T00:42:02.665Z,987.47
2018-12-09T00:43:02.641Z,987.36
2018-12-09T00:44:02.633Z,987.39
2018-12-09T00:45:02.627Z,987.37
2018-12-09T00:46:02.605Z,987.34
2018-12-09T00:47:02.618Z,987.31
2018-12-09T00:48:02.591Z,987.33
2018-12-09T00:49:02.579Z,987.29
2018-12-09T00:50:02.572Z,987.31
2018-12-09T00:51:02.562Z,987.34
2018-12-09T00:52:02.566Z,987.34
2018-12-09T00:53:02.535Z,987.35
2018-12-09T00:54:02.525Z,987.22
2018-12-09T00:55:03.357Z,987.23
2018-12-09T00:56:02.541Z,987.22
2018-12-09T00:57:02.528Z,987.18
2018-12-09T00:58:02.479Z,987.17
2018-12-09T00:59:02.463Z,987.11
2018-12-09T01:00:02.462Z,987.13
2018-12-09T01:01:02.446Z,987.03
2018-12-09T01:02:02.445Z,986.99
2018-12-09T01:03:02.447Z,986.91
2018-12-09T01:04:02.413Z,986.91
2018-12-09T01:05:02.401Z,986.79
2018-12-09T01:06:02.390Z,986.87
2018-12-09T01:07:02.382Z,986.72
2018-12-09T01:08:02.381Z,986.76
2018-12-09T01:09:02.363Z,986.73
2018-12-09T01:10:02.345Z,986.59
2018-12-09T01:11:02.335Z,986.57
2018-12-09T01:12:02.326Z,986.47
2018-12-09T01:13:02.337Z,986.52
2018-12-09T01:14:02.307Z,986.58
2018-12-09T01:15:02.290Z,986.61
2018-12-09T01:16:02.286Z,986.60
2018-12-09T01:17:02.276Z,986.50
2018-12-09T01:18:02.274Z,986.46
2018-12-09T01:19:02.248Z,986.30
2018-12-09T01:20:02.250Z,986.37
2018-12-09T01:21:02.230Z,986.30
2018-12-09T01:22:02.221Z,986.34
2018-12-09T01:23:02.223Z,986.40
2018-12-09T01:24:02.211Z,986.27
2018-12-09T01:25:02.196Z,986.25
2018-12-09T01:26:02.205Z,986.21
2018-12-09T01:27:02.167Z,986.15
2018-12-09T01:28:02.180Z,986.18
2018-12-09T01:29:02.151Z,986.24
2018-12-09T01:30:02.141Z,986.18
2018-12-09T01:31:02.132Z,986.13
2018-12-09T01:32:02.143Z,986.09
2018-12-09T01:33:02.162Z,986.08
2018-12-09T01:34:02.088Z,986.01
2018-12-09T01:35:02.086Z,986.01
2018-12-09T01:36:02.081Z,986.01
2018-12-09T01:37:02.066Z,986.01
2018-12-09T01:38:02.123Z,985.93
2018-12-09T01:39:02.033Z,985.99
2018-12-09T01:40:02.026Z,986.07
2018-12-09T01:41:02.020Z,986.01
2018-12-09T01:42:02.003Z,985.97
2018-12-09T01:43:02.018Z,985.90
2018-12-09T01:44:02.006Z,985.85
2018-12-09T01:45:01.971Z,985.88
2018-12-09T01:46:01.961Z,985.84
2018-12-09T01:47:01.946Z,985.80
2018-12-09T01:48:01.942Z,985.82
2018-12-09T01:49:01.955Z,985.83
2018-12-09T01:50:01.920Z,985.78
2018-12-09T01:51:01.902Z,985.78
2018-12-09T01:52:01.894Z,985.76
2018-12-09T01:53:01.884Z,985.75
2018-12-09T01:54:01.894Z,985.77
2018-12-09T01:55:01.866Z,985.76
2018-12-09T01:56:01.913Z,985.69
2018-12-09T01:57:01.849Z,985.64
2018-12-09T01:58:01.842Z,985.60
2018-12-09T01:59:01.846Z,985.59
2018-12-09T02:00:01.815Z,985.53
2018-12-09T02:01:01.799Z,985.44
2018-12-09T02:02:01.789Z,985.51
2018-12-09T02:03:01.775Z,985.57
2018-12-09T02:04:01.784Z,985.52
2018-12-09T02:05:01.754Z,985.48
2018-12-09T02:06:01.750Z,985.46
2018-12-09T02:07:01.731Z,985.41
2018-12-09T02:08:01.722Z,985.35
2018-12-09T02:09:01.788Z,985.38
2018-12-09T02:10:01.699Z,985.35
2018-12-09T02:11:01.698Z,985.34
2018-12-09T02:12:01.678Z,985.28
2018-12-09T02:13:01.664Z,985.32
2018-12-09T02:14:01.682Z,985.27
2018-12-09T02:15:01.660Z,985.24
2018-12-09T02:16:01.636Z,985.16
2018-12-09T02:17:01.629Z,985.24
2018-12-09T02:18:01.618Z,985.18
2018-12-09T02:19:01.639Z,985.17
2018-12-09T02:20:01.702Z,985.17
2018-12-09T02:21:01.593Z,985.14
2018-12-09T02:22:01.573Z,985.18
2018-12-09T02:23:01.569Z,985.12
2018-12-09T02:24:01.543Z,985.10
2018-12-09T02:25:01.565Z,985.13
2018-12-09T02:26:01.525Z,985.08
2018-12-09T02:27:01.526Z,985.06
2018-12-09T02:28:01.511Z,984.97
2018-12-09T02:29:01.492Z,984.99
2018-12-09T02:30:01.499Z,985.02
2018-12-09T02:31:01.473Z,985.01
2018-12-09T02:32:01.460Z,984.91
2018-12-09T02:33:01.454Z,984.92
2018-12-09T02:34:01.448Z,984.87
2018-12-09T02:35:01.530Z,984.85
2018-12-09T02:36:01.419Z,984.93
2018-12-09T02:37:01.415Z,984.89
2018-12-09T02:38:01.405Z,984.81
2018-12-09T02:39:01.386Z,984.82
2018-12-09T02:40:01.394Z,984.85
2018-12-09T02:41:01.365Z,984.81
2018-12-09T02:42:01.352Z,984.75
2018-12-09T02:43:01.339Z,984.75
2018-12-09T02:44:01.334Z,984.75
2018-12-09T02:45:01.348Z,984.76
2018-12-09T02:46:01.317Z,984.68
2018-12-09T02:47:01.309Z,984.65
2018-12-09T02:48:01.284Z,984.66
2018-12-09T02:49:01.276Z,984.66
2018-12-09T02:50:01.298Z,984.66
2018-12-09T02:51:01.259Z,984.71
2018-12-09T02:52:01.258Z,984.58
2018-12-09T02:53:01.233Z,984.59
2018-12-09T02:54:01.219Z,984.53
2018-12-09T02:55:01.227Z,984.47
2018-12-09T02:56:01.218Z,984.50
2018-12-09T02:57:01.194Z,984.45
2018-12-09T02:58:01.176Z,984.31
2018-12-09T02:59:01.164Z,984.35
2018-12-09T03:00:01.157Z,984.34
2018-12-09T03:01:01.160Z,984.33
2018-12-09T03:02:01.137Z,984.38
2018-12-09T03:03:01.128Z,984.37
2018-12-09T03:04:01.116Z,984.46
2018-12-09T03:05:01.099Z,984.29
2018-12-09T03:06:01.123Z,984.25
2018-12-09T03:07:01.080Z,984.29
2018-12-09T03:08:01.086Z,984.24
2018-12-09T03:09:01.059Z,984.32
2018-12-09T03:10:01.050Z,984.29
2018-12-09T03:11:01.050Z,984.21
2018-12-09T03:12:01.027Z,984.27
2018-12-09T03:13:01.017Z,984.23
2018-12-09T03:14:01.009Z,984.28
2018-12-09T03:15:01.017Z,984.25
2018-12-09T03:16:01.020Z,984.22
2018-12-09T03:17:00.968Z,984.20
2018-12-09T03:18:00.969Z,984.25
2018-12-09T03:19:00.950Z,984.17
2018-12-09T03:20:00.940Z,984.15
2018-12-09T03:21:00.958Z,984.14
2018-12-09T03:22:00.915Z,984.10
2018-12-09T03:23:00.903Z,984.14
2018-12-09T03:24:00.899Z,984.18
2018-12-09T03:25:00.926Z,984.13
2018-12-09T03:26:00.926Z,984.14
2018-12-09T03:27:00.861Z,984.14
2018-12-09T03:28:00.855Z,984.16
2018-12-09T03:29:00.839Z,984.11
2018-12-09T03:30:00.969Z,984.09
2018-12-09T03:31:00.821Z,984.13
2018-12-09T03:32:00.849Z,984.03
2018-12-09T03:33:00.800Z,984.04
2018-12-09T03:34:00.789Z,984.01
2018-12-09T03:35:00.784Z,984.06
2018-12-09T03:36:00.765Z,984.01
2018-12-09T03:37:00.780Z,984.05
2018-12-09T03:38:00.765Z,984.02
2018-12-09T03:39:00.732Z,984.03
2018-12-09T03:40:00.722Z,983.99
2018-12-09T03:41:00.707Z,984.12
2018-12-09T03:42:00.728Z,984.01
2018-12-09T03:43:00.700Z,984.02
2018-12-09T03:44:00.682Z,983.99
2018-12-09T03:45:00.674Z,983.98
2018-12-09T03:46:00.681Z,983.96
2018-12-09T03:47:00.661Z,983.92
2018-12-09T03:48:00.640Z,983.93
2018-12-09T03:49:00.638Z,983.91
2018-12-09T03:50:00.625Z,983.90
2018-12-09T03:51:00.603Z,983.93
2018-12-09T03:52:00.604Z,983.91
2018-12-09T03:53:00.580Z,983.95
2018-12-09T03:54:00.662Z,983.90
2018-12-09T03:55:00.561Z,983.90
2018-12-09T03:56:00.566Z,983.98
2018-12-09T03:57:00.536Z,983.89
2018-12-09T03:58:00.521Z,983.90
2018-12-09T03:59:00.517Z,983.85
2018-12-09T04:00:00.512Z,983.87
2018-12-09T04:01:00.524Z,983.84
2018-12-09T04:02:00.480Z,983.82
2018-12-09T04:03:00.490Z,983.94
2018-12-09T04:04:00.460Z,983.81
2018-12-09T04:05:00.457Z,983.86
2018-12-09T04:06:00.466Z,983.90
2018-12-09T04:07:00.426Z,983.88
2018-12-09T04:08:00.436Z,983.92
2018-12-09T04:09:00.406Z,983.92
2018-12-09T04:10:00.399Z,983.91
2018-12-09T04:11:00.397Z,983.94
2018-12-09T04:12:00.376Z,983.84
2018-12-09T04:13:00.379Z,983.88
2018-12-09T04:14:00.351Z,983.78
2018-12-09T04:15:00.349Z,983.81
2018-12-09T04:16:00.336Z,983.74
2018-12-09T04:17:00.340Z,983.80
2018-12-09T04:18:00.334Z,983.80
2018-12-09T04:19:00.300Z,983.79
2018-12-09T04:20:00.284Z,983.79
2018-12-09T04:21:00.276Z,983.77
2018-12-09T04:22:00.267Z,983.74
2018-12-09T04:23:00.277Z,983.70
2018-12-09T04:24:00.247Z,983.78
2018-12-09T04:25:00.228Z,983.71
2018-12-09T04:26:00.230Z,983.71
2018-12-09T04:27:00.209Z,983.72
2018-12-09T04:28:00.236Z,983.76
2018-12-09T04:29:00.189Z,983.77
2018-12-09T04:30:00.180Z,983.72
2018-12-09T04:31:00.169Z,983.67
2018-12-09T04:32:00.166Z,983.70
2018-12-09T04:33:00.147Z,983.66
2018-12-09T04:34:00.152Z,983.67
2018-12-09T04:35:00.123Z,983.63
2018-12-09T04:36:00.116Z,983.64
2018-12-09T04:37:00.104Z,983.66
2018-12-09T04:38:00.089Z,983.66
2018-12-09T04:39:00.099Z,983.62
2018-12-09T04:40:00.082Z,983.70
2018-12-09T04:41:00.060Z,983.62
2018-12-09T04:42:00.046Z,983.69
2018-12-09T04:43:00.036Z,983.68
2018-12-09T04:44:00.080Z,983.76
2018-12-09T04:45:00.026Z,983.67
2018-12-09T04:46:00.000Z,983.68
2018-12-09T04:46:59.995Z,983.67
2018-12-09T04:47:59.977Z,983.73
2018-12-09T04:48:59.987Z,983.72
2018-12-09T04:49:59.961Z,983.67
2018-12-09T04:50:59.951Z,983.79
2018-12-09T04:51:59.939Z,983.78
2018-12-09T04:52:59.928Z,983.72
2018-12-09T04:53:59.937Z,983.74
2018-12-09T04:54:59.912Z,983.71
2018-12-09T04:55:59.896Z,983.70
2018-12-09T04:56:59.903Z,983.69
2018-12-09T04:57:59.871Z,983.71
2018-12-09T04:58:59.864Z,983.72
2018-12-09T04:59:59.873Z,983.73
2018-12-09T05:00:59.864Z,983.69
2018-12-09T05:01:59.852Z,983.74
2018-12-09T05:02:59.827Z,983.73
2018-12-09T05:03:59.806Z,983.80
2018-12-09T05:04:59.815Z,983.76
2018-12-09T05:05:59.797Z,983.79
2018-12-09T05:06:59.797Z,983.82
2018-12-09T05:07:59.773Z,983.74
2018-12-09T05:08:59.753Z,983.75
2018-12-09T05:09:59.757Z,983.74
2018-12-09T05:10:59.733Z,983.86
2018-12-09T05:11:59.741Z,983.79
2018-12-09T05:12:59.723Z,983.89
2018-12-09T05:13:59.707Z,983.85
2018-12-09T05:14:59.708Z,983.81
2018-12-09T05:15:59.681Z,983.88
2018-12-09T05:16:59.672Z,983.91
2018-12-09T05:17:59.655Z,983.89
2018-12-09T05:18:59.649Z,983.87
2018-12-09T05:19:59.658Z,983.88
2018-12-09T05:20:59.621Z,983.81
2018-12-09T05:21:59.613Z,983.93
2018-12-09T05:22:59.603Z,983.94
2018-12-09T05:23:59.587Z,983.98
2018-12-09T05:24:59.592Z,984.00
2018-12-09T05:25:59.567Z,983.99
2018-12-09T05:26:59.556Z,983.96
2018-12-09T05:27:59.550Z,984.03
2018-12-09T05:28:59.541Z,984.03
2018-12-09T05:29:59.567Z,984.06
2018-12-09T05:30:59.520Z,984.09
2018-12-09T05:31:59.515Z,984.11
2018-12-09T05:32:59.491Z,984.08
2018-12-09T05:33:59.485Z,984.06
2018-12-09T05:34:59.470Z,984.07
2018-12-09T05:35:59.493Z,984.12
2018-12-09T05:36:59.453Z,984.06
2018-12-09T05:37:59.463Z,984.02
2018-12-09T05:38:59.430Z,984.08
2018-12-09T05:39:59.421Z,984.09
2018-12-09T05:40:59.425Z,984.11
2018-12-09T05:41:59.403Z,984.17
2018-12-09T05:42:59.414Z,984.11
2018-12-09T05:43:59.379Z,984.14
2018-12-09T05:44:59.375Z,984.17
2018-12-09T05:45:59.421Z,984.25
2018-12-09T05:46:59.341Z,984.19
2018-12-09T05:47:59.335Z,984.27
2018-12-09T05:48:59.325Z,984.06
2018-12-09T05:49:59.307Z,984.20
2018-12-09T05:50:59.311Z,984.22
2018-12-09T05:51:59.297Z,984.18
2018-12-09T05:52:59.278Z,984.17
2018-12-09T05:53:59.273Z,984.20
2018-12-09T05:54:59.252Z,984.15
2018-12-09T05:55:59.261Z,984.17
2018-12-09T05:56:59.231Z,984.29
2018-12-09T05:57:59.243Z,984.17
2018-12-09T05:58:59.220Z,984.21
2018-12-09T05:59:59.201Z,984.22
2018-12-09T06:00:59.191Z,984.21
2018-12-09T06:01:59.230Z,984.25
2018-12-09T06:02:59.169Z,984.22
2018-12-09T06:03:59.161Z,984.20
2018-12-09T06:04:59.163Z,984.25
2018-12-09T06:05:59.150Z,984.27
2018-12-09T06:06:59.145Z,984.25
2018-12-09T06:07:59.116Z,984.23
2018-12-09T06:08:59.104Z,984.34
2018-12-09T06:09:59.091Z,984.33
2018-12-09T06:10:59.153Z,984.41
2018-12-09T06:11:59.095Z,984.34
2018-12-09T06:12:59.066Z,984.29
2018-12-09T06:13:59.181Z,984.34
2018-12-09T06:14:59.041Z,984.36
2018-12-09T06:15:59.031Z,984.39
2018-12-09T06:16:59.034Z,984.44
2018-12-09T06:17:59.010Z,984.45
2018-12-09T06:18:58.993Z,984.57
2018-12-09T06:19:58.985Z,984.51
2018-12-09T06:20:58.969Z,984.47
2018-12-09T06:21:59.071Z,984.59
2018-12-09T06:22:58.951Z,984.54
2018-12-09T06:23:58.973Z,984.61
2018-12-09T06:24:58.925Z,984.62
2018-12-09T06:25:58.918Z,984.66
2018-12-09T06:26:58.927Z,984.69
2018-12-09T06:27:58.899Z,984.75
2018-12-09T06:28:58.880Z,984.73
2018-12-09T06:29:58.876Z,984.71
2018-12-09T06:30:58.864Z,984.80
2018-12-09T06:31:58.870Z,984.83
2018-12-09T06:32:58.843Z,984.83
2018-12-09T06:33:58.854Z,984.87
2018-12-09T06:34:58.817Z,984.84
2018-12-09T06:35:58.810Z,984.87
2018-12-09T06:36:58.797Z,984.94
2018-12-09T06:37:58.799Z,984.95
2018-12-09T06:38:58.786Z,984.98
2018-12-09T06:39:58.787Z,984.94
2018-12-09T06:40:58.751Z,984.99
2018-12-09T06:42:00.609Z,984.99
2018-12-09T06:42:58.744Z,985.04
2018-12-09T06:43:58.727Z,985.02
2018-12-09T06:44:58.711Z,985.04
2018-12-09T06:45:58.701Z,985.01
2018-12-09T06:46:58.692Z,985.09
2018-12-09T06:47:58.692Z,985.07
2018-12-09T06:48:58.682Z,985.12
2018-12-09T06:49:58.665Z,985.09
2018-12-09T06:50:58.657Z,985.16
2018-12-09T06:51:58.633Z,985.10
2018-12-09T06:52:58.642Z,985.16
2018-12-09T06:53:58.615Z,985.15
2018-12-09T06:54:58.614Z,985.21
2018-12-09T06:55:58.605Z,985.26
2018-12-09T06:56:58.578Z,985.26
2018-12-09T06:57:58.602Z,985.26
2018-12-09T06:58:58.582Z,985.25
2018-12-09T06:59:58.549Z,985.33
2018-12-09T07:00:58.535Z,985.33
2018-12-09T07:01:58.528Z,985.31
2018-12-09T07:02:58.534Z,985.41
2018-12-09T07:03:58.520Z,985.41
2018-12-09T07:04:58.494Z,985.39
2018-12-09T07:05:58.485Z,985.42
2018-12-09T07:06:58.472Z,985.44
2018-12-09T07:07:58.470Z,985.49
2018-12-09T07:08:58.475Z,985.44
2018-12-09T07:09:58.440Z,985.48
2018-12-09T07:10:58.493Z,985.53
2018-12-09T07:11:58.416Z,985.54
2018-12-09T07:12:58.412Z,985.52
2018-12-09T07:13:58.418Z,985.52
2018-12-09T07:14:58.386Z,985.59
2018-12-09T07:15:58.376Z,985.64
2018-12-09T07:16:58.363Z,985.66
2018-12-09T07:17:58.354Z,985.66
2018-12-09T07:18:58.361Z,985.66
2018-12-09T07:19:58.333Z,985.71
2018-12-09T07:20:58.321Z,985.72
2018-12-09T07:21:58.309Z,985.67
2018-12-09T07:22:58.300Z,985.67
2018-12-09T07:23:58.314Z,985.73
2018-12-09T07:24:58.279Z,985.80
2018-12-09T07:25:58.264Z,985.79
2018-12-09T07:26:58.256Z,985.84
2018-12-09T07:27:58.245Z,985.85
2018-12-09T07:28:58.252Z,985.89
2018-12-09T07:30:02.245Z,985.88
2018-12-09T07:30:58.220Z,985.93
2018-12-09T07:31:58.202Z,985.88
2018-12-09T07:32:58.188Z,985.93
2018-12-09T07:33:58.690Z,985.94
2018-12-09T07:34:58.166Z,985.95
2018-12-09T07:35:58.166Z,986.05
2018-12-09T07:36:58.160Z,986.10
2018-12-09T07:37:58.132Z,986.08
2018-12-09T07:38:58.128Z,986.01
2018-12-09T07:39:58.141Z,986.08
2018-12-09T07:40:58.102Z,986.13
2018-12-09T07:41:58.109Z,986.06
2018-12-09T07:42:58.082Z,986.11
2018-12-09T07:43:58.070Z,986.17
2018-12-09T07:44:58.096Z,986.15
2018-12-09T07:45:58.062Z,986.12
2018-12-09T07:46:58.037Z,986.16
2018-12-09T07:47:58.033Z,986.25
2018-12-09T07:48:58.018Z,986.19
2018-12-09T07:49:58.026Z,986.24
2018-12-09T07:50:57.994Z,986.23
2018-12-09T07:51:57.990Z,986.25
2018-12-09T07:52:57.985Z,986.21
2018-12-09T07:53:57.987Z,986.24
2018-12-09T07:54:57.977Z,986.28
2018-12-09T07:55:57.948Z,986.25
2018-12-09T07:56:57.931Z,986.28
2018-12-09T07:57:57.929Z,986.25
2018-12-09T07:58:57.909Z,986.20
2018-12-09T07:59:57.921Z,986.26
2018-12-09T08:00:57.891Z,986.27
2018-12-09T08:01:57.880Z,986.27
2018-12-09T08:02:57.868Z,986.29
2018-12-09T08:03:57.856Z,986.35
2018-12-09T08:04:57.863Z,986.39
2018-12-09T08:05:57.834Z,986.37
2018-12-09T08:06:57.825Z,986.36
2018-12-09T08:07:57.818Z,986.42
2018-12-09T08:08:57.813Z,986.39
2018-12-09T08:09:57.801Z,986.44
2018-12-09T08:10:57.785Z,986.47
2018-12-09T08:11:57.780Z,986.49
2018-12-09T08:12:57.799Z,986.54
2018-12-09T08:13:57.825Z,986.65
2018-12-09T08:14:57.790Z,986.62
2018-12-09T08:15:57.727Z,986.65
2018-12-09T08:16:57.727Z,986.62
2018-12-09T08:17:57.705Z,986.70
2018-12-09T08:18:57.695Z,986.77
2018-12-09T08:19:57.708Z,986.78
2018-12-09T08:20:57.674Z,986.72
2018-12-09T08:21:57.664Z,986.70
2018-12-09T08:22:57.650Z,986.78
2018-12-09T08:23:57.677Z,986.80
2018-12-09T08:24:57.649Z,986.83
2018-12-09T08:25:57.625Z,986.87
2018-12-09T08:26:57.967Z,986.86
2018-12-09T08:27:57.599Z,986.82
2018-12-09T08:28:57.582Z,986.88
2018-12-09T08:29:57.591Z,986.89
2018-12-09T08:30:57.567Z,986.93
2018-12-09T08:31:57.550Z,986.91
2018-12-09T08:32:57.555Z,986.90
2018-12-09T08:33:57.549Z,986.85
2018-12-09T08:34:57.558Z,986.95
2018-12-09T08:35:57.509Z,986.94
2018-12-09T08:36:57.509Z,986.93
2018-12-09T08:37:57.492Z,987.01
2018-12-09T08:38:57.502Z,986.99
2018-12-09T08:39:57.478Z,987.04
2018-12-09T08:40:57.472Z,987.02
2018-12-09T08:41:57.449Z,987.11
2018-12-09T08:42:57.432Z,987.21
2018-12-09T08:43:57.424Z,987.14
2018-12-09T08:44:57.410Z,987.14
2018-12-09T08:45:57.425Z,987.19
2018-12-09T08:46:57.386Z,987.24
2018-12-09T08:47:57.382Z,987.20
2018-12-09T08:48:57.376Z,987.28
2018-12-09T08:49:57.361Z,987.29
2018-12-09T08:50:57.402Z,987.28
2018-12-09T08:51:57.335Z,987.27
2018-12-09T08:52:57.323Z,987.36
2018-12-09T08:53:57.316Z,987.30
2018-12-09T08:54:57.299Z,987.40
2018-12-09T08:55:57.337Z,987.39
2018-12-09T08:56:57.288Z,987.38
2018-12-09T08:57:57.275Z,987.36
2018-12-09T08:58:57.258Z,987.36
2018-12-09T08:59:57.245Z,987.46
2018-12-09T09:00:57.260Z,987.38
2018-12-09T09:01:57.244Z,987.44
2018-12-09T09:02:57.216Z,987.48
2018-12-09T09:03:57.203Z,987.51
2018-12-09T09:04:57.195Z,987.57
2018-12-09T09:05:57.205Z,987.54
2018-12-09T09:06:57.171Z,987.58
2018-12-09T09:07:57.168Z,987.60
2018-12-09T09:08:57.146Z,987.73
2018-12-09T09:09:57.141Z,987.63
2018-12-09T09:10:57.143Z,987.66
2018-12-09T09:11:57.115Z,987.71
2018-12-09T09:12:57.108Z,987.70
2018-12-09T09:13:57.101Z,987.72
2018-12-09T09:14:57.093Z,987.71
2018-12-09T09:15:57.089Z,987.77
2018-12-09T09:16:57.064Z,987.74
2018-12-09T09:17:57.055Z,987.78
2018-12-09T09:18:57.043Z,987.75
2018-12-09T09:19:57.039Z,987.75
2018-12-09T09:20:57.057Z,987.76
2018-12-09T09:21:57.010Z,987.76
2018-12-09T09:22:57.024Z,987.69
2018-12-09T09:23:56.988Z,987.85
2018-12-09T09:24:56.978Z,987.80
2018-12-09T09:25:56.962Z,987.84
2018-12-09T09:26:56.967Z,987.80
2018-12-09T09:27:56.944Z,987.86
2018-12-09T09:28:56.935Z,987.88
2018-12-09T09:29:56.920Z,987.89
2018-12-09T09:30:56.917Z,987.87
2018-12-09T09:31:56.934Z,987.90
2018-12-09T09:32:56.887Z,987.91
2018-12-09T09:33:56.882Z,987.89
2018-12-09T09:34:56.868Z,987.93
2018-12-09T09:35:56.862Z,987.94
2018-12-09T09:36:56.869Z,987.94
2018-12-09T09:37:56.831Z,987.98
2018-12-09T09:38:56.823Z,987.97
2018-12-09T09:39:56.813Z,988.00
2018-12-09T09:40:56.803Z,987.98
2018-12-09T09:41:56.822Z,988.06
2018-12-09T09:42:56.786Z,987.89
2018-12-09T09:43:56.768Z,987.96
2018-12-09T09:44:56.771Z,988.01
2018-12-09T09:45:56.759Z,987.97
2018-12-09T09:46:56.808Z,988.00
2018-12-09T09:47:56.727Z,988.00
2018-12-09T09:48:56.717Z,987.92
2018-12-09T09:49:56.715Z,988.05
2018-12-09T09:50:56.691Z,988.10
2018-12-09T09:51:56.703Z,988.08
2018-12-09T09:52:56.691Z,988.12
2018-12-09T09:53:56.669Z,988.16
2018-12-09T09:54:56.645Z,988.16
2018-12-09T09:55:56.643Z,988.13
2018-12-09T09:56:56.646Z,988.24
2018-12-09T09:57:56.615Z,988.22
2018-12-09T09:58:56.608Z,988.13
2018-12-09T09:59:56.591Z,988.23
2018-12-09T10:00:56.586Z,988.27
2018-12-09T10:01:56.597Z,988.28
2018-12-09T10:02:56.565Z,988.22
2018-12-09T10:03:57.362Z,988.24
2018-12-09T10:04:56.551Z,988.23
2018-12-09T10:05:56.528Z,988.19
2018-12-09T10:06:56.600Z,988.26
2018-12-09T10:07:56.506Z,988.21
2018-12-09T10:08:56.498Z,988.26
2018-12-09T10:09:56.532Z,988.22
2018-12-09T10:10:56.518Z,988.29
2018-12-09T10:11:56.529Z,988.27
2018-12-09T10:12:56.489Z,988.33
2018-12-09T10:13:56.444Z,988.30
2018-12-09T10:14:56.449Z,988.30
2018-12-09T10:15:56.422Z,988.30
2018-12-09T10:16:56.401Z,988.29
2018-12-09T10:17:56.414Z,988.22
2018-12-09T10:18:56.435Z,988.23
2018-12-09T10:19:56.408Z,988.25
2018-12-09T10:20:56.371Z,988.29
2018-12-09T10:21:56.374Z,988.32
2018-12-09T10:22:56.410Z,988.33
2018-12-09T10:23:56.357Z,988.38
2018-12-09T10:24:56.361Z,988.36
2018-12-09T10:25:56.339Z,988.36
2018-12-09T10:26:56.309Z,988.34
2018-12-09T10:27:56.318Z,988.35
2018-12-09T10:28:56.283Z,988.33
2018-12-09T10:29:56.268Z,988.35
2018-12-09T10:30:56.257Z,988.33
2018-12-09T10:31:56.250Z,988.27
2018-12-09T10:32:56.253Z,988.37
2018-12-09T10:33:56.225Z,988.28
2018-12-09T10:34:56.220Z,988.30
2018-12-09T10:35:56.202Z,988.32
2018-12-09T10:36:56.191Z,988.28
2018-12-09T10:37:56.196Z,988.24
2018-12-09T10:38:56.178Z,988.28
2018-12-09T10:39:56.167Z,988.35
2018-12-09T10:40:56.150Z,988.37
2018-12-09T10:41:56.148Z,988.37
2018-12-09T10:42:56.144Z,988.39
2018-12-09T10:43:56.121Z,988.34
2018-12-09T10:44:56.111Z,988.35
2018-12-09T10:45:56.094Z,988.36
2018-12-09T10:46:56.088Z,988.38
2018-12-09T10:47:56.103Z,988.36
2018-12-09T10:48:56.073Z,988.45
2018-12-09T10:49:56.055Z,988.46
2018-12-09T10:50:56.050Z,988.39
2018-12-09T10:51:56.028Z,988.46
2018-12-09T10:52:56.038Z,988.43
2018-12-09T10:53:56.011Z,988.37
2018-12-09T10:54:55.998Z,988.48
2018-12-09T10:55:55.988Z,988.48
2018-12-09T10:56:55.987Z,988.56
2018-12-09T10:57:56.008Z,988.54
2018-12-09T10:58:55.952Z,988.48
2018-12-09T10:59:55.947Z,988.57
2018-12-09T11:00:55.932Z,988.54
2018-12-09T11:01:55.934Z,988.59
2018-12-09T11:02:55.962Z,988.58
2018-12-09T11:03:55.915Z,988.54
2018-12-09T11:04:55.894Z,988.53
2018-12-09T11:05:55.914Z,988.52
2018-12-09T11:06:55.901Z,988.64
2018-12-09T11:07:55.866Z,988.58
2018-12-09T11:08:55.896Z,988.57
2018-12-09T11:09:55.836Z,988.63
2018-12-09T11:10:55.840Z,988.55
2018-12-09T11:11:55.849Z,988.61
2018-12-09T11:12:55.807Z,988.64
2018-12-09T11:13:58.247Z,988.64
2018-12-09T11:14:55.781Z,988.67
2018-12-09T11:15:55.768Z,988.62
2018-12-09T11:16:55.761Z,988.65
2018-12-09T11:17:55.745Z,988.65
2018-12-09T11:18:55.763Z,988.70
2018-12-09T11:19:55.729Z,988.70
2018-12-09T11:20:55.715Z,988.71
2018-12-09T11:21:55.713Z,988.69
2018-12-09T11:22:55.709Z,988.65
2018-12-09T11:23:55.712Z,988.73
2018-12-09T11:24:55.679Z,988.67
2018-12-09T11:25:55.670Z,988.64
2018-12-09T11:26:55.656Z,988.68
2018-12-09T11:27:55.642Z,988.60
2018-12-09T11:28:55.662Z,988.56
2018-12-09T11:29:55.625Z,988.58
2018-12-09T11:30:55.620Z,988.51
2018-12-09T11:31:55.599Z,988.64
2018-12-09T11:32:55.592Z,988.70
2018-12-09T11:33:55.586Z,988.61
2018-12-09T11:34:55.588Z,988.66
2018-12-09T11:35:55.676Z,988.60
2018-12-09T11:36:55.541Z,988.63
2018-12-09T11:37:55.537Z,988.62
2018-12-09T11:38:55.520Z,988.59
2018-12-09T11:39:55.541Z,988.63
2018-12-09T11:40:55.499Z,988.64
2018-12-09T11:41:55.490Z,988.64
2018-12-09T11:42:55.475Z,988.58
2018-12-09T11:43:55.476Z,988.62
2018-12-09T11:44:55.470Z,988.64
2018-12-09T11:45:55.442Z,988.58
2018-12-09T11:46:55.434Z,988.61
2018-12-09T11:47:55.433Z,988.61
2018-12-09T11:48:55.413Z,988.68
2018-12-09T11:49:55.415Z,988.62
2018-12-09T11:50:55.390Z,988.58
2018-12-09T11:51:55.380Z,988.64
2018-12-09T11:52:55.374Z,988.70
2018-12-09T11:53:55.376Z,988.63
2018-12-09T11:54:55.362Z,988.64
2018-12-09T11:55:55.338Z,988.63
2018-12-09T11:56:55.334Z,988.71
2018-12-09T11:57:55.312Z,988.66
2018-12-09T11:58:55.318Z,988.67
2018-12-09T11:59:55.316Z,988.67
2018-12-09T12:00:55.287Z,988.71
2018-12-09T12:01:55.271Z,988.71
2018-12-09T12:02:55.267Z,988.68
2018-12-09T12:03:55.255Z,988.62
2018-12-09T12:04:55.258Z,988.67
2018-12-09T12:05:55.230Z,988.66
2018-12-09T12:06:55.227Z,988.63
2018-12-09T12:07:55.203Z,988.62
2018-12-09T12:08:55.277Z,988.69
2018-12-09T12:09:55.299Z,988.68
2018-12-09T12:10:55.192Z,988.69
2018-12-09T12:11:55.167Z,988.70
2018-12-09T12:12:55.184Z,988.69
2018-12-09T12:13:55.158Z,988.72
2018-12-09T12:14:55.176Z,988.78
2018-12-09T12:15:55.139Z,988.76
2018-12-09T12:16:56.011Z,988.77
2018-12-09T12:17:55.111Z,988.72
2018-12-09T12:18:55.160Z,988.77
2018-12-09T12:19:55.084Z,988.82
2018-12-09T12:20:55.102Z,988.78
2018-12-09T12:21:55.086Z,988.83
2018-12-09T12:22:55.095Z,988.73
2018-12-09T12:23:55.055Z,988.77
2018-12-09T12:24:55.046Z,988.85
2018-12-09T12:25:55.052Z,988.82
2018-12-09T12:26:55.025Z,988.84
2018-12-09T12:27:55.012Z,988.86